Terminal Aerodrome Forecast
Issued by NWS Memphis, TN

Home | Current Version | Previous Version | Text Only | Print | Product List | Glossary On
Versions: 1 2 3 4 5 6 7 8 9 10 11 12 13 14 15 16 17 18 19 20 21 22 23
000
FTUS44 KMEG 280538
TAFJBR
TAF
KJBR 280538Z 2806/2906 17003KT P6SM SCT250
     FM280900 VRB03KT 3SM BR SCT250
      TEMPO 2810/2814 1/2SM FG VV002
     FM281500 14005KT P6SM SCT120
     FM290000 13004KT P6SM SCT250=

USA.gov is the U.S. government's official web portal to all federal, state and local government web resources and services.